createdAt,value
2019-04-04T00:00:27.613Z,69.50
2019-04-04T00:02:54.831Z,69.30
2019-04-04T00:05:22.139Z,69.06
2019-04-04T00:07:49.379Z,69.14
2019-04-04T00:10:16.645Z,69.13
2019-04-04T00:12:43.957Z,69.06
2019-04-04T00:15:11.247Z,68.89
2019-04-04T00:17:40.167Z,68.79
2019-04-04T00:20:07.603Z,68.78
2019-04-04T00:22:35.496Z,68.41
2019-04-04T00:25:03.338Z,68.41
2019-04-04T00:27:30.539Z,68.46
2019-04-04T00:29:57.802Z,68.79
2019-04-04T00:32:25.043Z,68.78
2019-04-04T00:34:52.274Z,68.87
2019-04-04T00:37:19.533Z,68.97
2019-04-04T00:39:46.715Z,68.97
2019-04-04T00:42:15.033Z,68.80
2019-04-04T00:44:43.076Z,68.60
2019-04-04T00:47:10.346Z,68.95
2019-04-04T00:49:37.673Z,70.06
2019-04-04T00:52:04.920Z,70.45
2019-04-04T00:54:32.154Z,69.85
2019-04-04T00:56:59.356Z,69.61
2019-04-04T00:59:26.617Z,70.07
2019-04-04T01:01:55.075Z,71.34
2019-04-04T01:04:22.931Z,71.98
2019-04-04T01:06:50.206Z,72.17
2019-04-04T01:09:17.414Z,71.24
2019-04-04T01:11:44.654Z,70.59
2019-04-04T01:14:11.909Z,70.59
2019-04-04T01:16:39.137Z,70.44
2019-04-04T01:19:09.678Z,70.25
2019-04-04T01:21:35.532Z,70.03
2019-04-04T01:24:02.880Z,69.79
2019-04-04T01:26:30.131Z,70.04
2019-04-04T01:28:57.364Z,70.04
2019-04-04T01:31:24.592Z,70.17
2019-04-04T01:33:52.059Z,70.04
2019-04-04T01:36:19.316Z,70.04
2019-04-04T01:38:46.548Z,70.36
2019-04-04T01:41:13.818Z,70.43
2019-04-04T01:43:41.072Z,70.74
2019-04-04T01:46:08.316Z,70.93
2019-04-04T01:48:35.598Z,70.90
2019-04-04T01:51:02.826Z,71.34
2019-04-04T01:53:30.793Z,71.19
2019-04-04T01:55:58.190Z,71.12
2019-04-04T01:58:25.439Z,71.04
2019-04-04T02:00:52.663Z,70.90
2019-04-04T02:03:22.467Z,70.84
2019-04-04T02:05:49.112Z,70.76
2019-04-04T02:08:16.341Z,70.54
2019-04-04T02:10:46.659Z,71.00
2019-04-04T02:13:13.947Z,70.97
2019-04-04T02:15:42.846Z,70.83
2019-04-04T02:18:10.342Z,70.78
2019-04-04T02:20:37.637Z,70.70
2019-04-04T02:23:04.893Z,70.63
2019-04-04T02:25:34.159Z,70.51
2019-04-04T02:28:01.306Z,70.35
2019-04-04T02:30:28.819Z,70.35
2019-04-04T02:32:59.316Z,70.37
2019-04-04T02:35:25.204Z,70.56
2019-04-04T02:37:54.883Z,70.69
2019-04-04T02:40:21.589Z,70.80
2019-04-04T02:42:48.920Z,70.92
2019-04-04T02:45:16.245Z,70.96
2019-04-04T02:47:43.495Z,71.04
2019-04-04T02:50:11.281Z,71.07
2019-04-04T02:52:38.525Z,71.19
2019-04-04T02:55:05.953Z,71.24
2019-04-04T02:57:33.214Z,71.53
2019-04-04T03:00:00.488Z,71.45
2019-04-04T03:02:27.708Z,71.29
2019-04-04T03:04:54.999Z,71.29
2019-04-04T03:07:22.264Z,71.09
2019-04-04T03:09:49.611Z,70.93
2019-04-04T03:12:17.085Z,70.75
2019-04-04T03:14:44.322Z,70.51
2019-04-04T03:17:11.569Z,70.69
2019-04-04T03:19:40.752Z,70.60
2019-04-04T03:22:07.982Z,70.30
2019-04-04T03:24:38.896Z,70.47
2019-04-04T03:27:04.471Z,70.31
2019-04-04T03:29:31.729Z,70.22
2019-04-04T03:31:58.995Z,70.15
2019-04-04T03:34:26.319Z,70.02
2019-04-04T03:36:53.601Z,69.90
2019-04-04T03:39:20.856Z,69.90
2019-04-04T03:41:48.091Z,69.74
2019-04-04T03:44:19.588Z,69.76
2019-04-04T03:46:44.577Z,69.78
2019-04-04T03:49:11.889Z,69.73
2019-04-04T03:51:39.153Z,69.62
2019-04-04T03:54:11.305Z,69.41
2019-04-04T03:56:39.429Z,69.41
2019-04-04T03:59:06.962Z,69.20
2019-04-04T04:01:34.261Z,69.24
2019-04-04T04:04:01.507Z,69.15
2019-04-04T04:06:28.757Z,69.02
2019-04-04T04:08:56.027Z,68.91
2019-04-04T04:11:23.268Z,68.82
2019-04-04T04:13:50.543Z,68.71
2019-04-04T04:16:17.785Z,68.49
2019-04-04T04:18:45.026Z,68.49
2019-04-04T04:21:12.297Z,68.52
2019-04-04T04:23:39.520Z,68.48
2019-04-04T04:26:09.355Z,68.37
2019-04-04T04:28:35.992Z,68.29
2019-04-04T04:31:03.237Z,68.05
2019-04-04T04:33:30.508Z,68.17
2019-04-04T04:35:57.778Z,68.15
2019-04-04T04:38:26.766Z,68.06
2019-04-04T04:40:54.146Z,68.04
2019-04-04T04:43:21.424Z,68.17
2019-04-04T04:45:48.655Z,68.25
2019-04-04T04:48:15.941Z,68.30
2019-04-04T04:50:43.267Z,68.40
2019-04-04T04:53:10.524Z,68.38
2019-04-04T04:55:37.754Z,68.32
2019-04-04T04:58:05.030Z,68.21
2019-04-04T05:00:32.309Z,68.03
2019-04-04T05:02:59.577Z,68.06
2019-04-04T05:05:26.803Z,67.99
2019-04-04T05:07:55.032Z,68.00
2019-04-04T05:10:22.499Z,67.94
2019-04-04T05:12:52.846Z,67.90
2019-04-04T05:15:21.227Z,67.75
2019-04-04T05:17:48.026Z,67.73
2019-04-04T05:20:15.255Z,67.72
2019-04-04T05:22:42.480Z,67.71
2019-04-04T05:25:09.942Z,67.67
2019-04-04T05:27:37.914Z,67.59
2019-04-04T05:30:08.147Z,67.69
2019-04-04T05:32:34.715Z,67.85
2019-04-04T05:35:02.157Z,67.95
2019-04-04T05:37:29.421Z,67.85
2019-04-04T05:39:59.767Z,67.85
2019-04-04T05:42:27.030Z,67.93
2019-04-04T05:44:54.276Z,67.96
2019-04-04T05:47:23.283Z,67.95
2019-04-04T05:49:50.764Z,67.91
2019-04-04T05:52:18.078Z,67.92
2019-04-04T05:54:45.381Z,68.19
2019-04-04T05:57:12.570Z,68.21
2019-04-04T05:59:42.186Z,68.19
2019-04-04T06:02:11.126Z,68.20
2019-04-04T06:04:38.099Z,68.27
2019-04-04T06:07:05.339Z,68.45
2019-04-04T06:09:32.601Z,68.50
2019-04-04T06:11:59.877Z,68.63
2019-04-04T06:14:29.688Z,68.71
2019-04-04T06:16:56.320Z,68.77
2019-04-04T06:19:26.082Z,68.85
2019-04-04T06:21:53.327Z,69.13
2019-04-04T06:24:20.566Z,69.32
2019-04-04T06:26:47.914Z,70.51
2019-04-04T06:29:17.373Z,70.21
2019-04-04T06:31:44.343Z,69.84
2019-04-04T06:34:11.613Z,69.48
2019-04-04T06:36:38.838Z,69.06
2019-04-04T06:39:07.385Z,68.82
2019-04-04T06:41:34.639Z,68.72
2019-04-04T06:44:01.843Z,68.70
2019-04-04T06:46:29.085Z,68.70
2019-04-04T06:48:56.375Z,68.54
2019-04-04T06:51:23.643Z,68.38
2019-04-04T06:53:53.320Z,68.38
2019-04-04T06:56:20.062Z,68.30
2019-04-04T06:58:47.351Z,68.52
2019-04-04T07:01:14.594Z,68.52
2019-04-04T07:03:41.858Z,68.44
2019-04-04T07:06:10.200Z,68.62
2019-04-04T07:08:38.193Z,68.83
2019-04-04T07:11:15.506Z,68.83
2019-04-04T07:13:42.090Z,68.85
2019-04-04T07:16:07.684Z,68.92
2019-04-04T07:18:33.372Z,69.04
2019-04-04T07:21:03.469Z,69.04
2019-04-04T07:23:29.794Z,69.22
2019-04-04T07:25:57.048Z,69.30
2019-04-04T07:28:24.298Z,69.30
2019-04-04T07:30:54.465Z,69.33
2019-04-04T07:33:21.474Z,69.33
2019-04-04T07:35:49.496Z,69.50
2019-04-04T07:38:16.872Z,69.49
2019-04-04T07:40:44.129Z,69.39
2019-04-04T07:43:11.395Z,69.39
2019-04-04T07:45:38.637Z,69.43
2019-04-04T07:48:05.901Z,69.46
2019-04-04T07:50:33.201Z,69.38
2019-04-04T07:53:04.051Z,69.36
2019-04-04T07:55:29.568Z,69.19
2019-04-04T07:57:56.873Z,69.19
2019-04-04T08:00:24.110Z,69.19
2019-04-04T08:02:51.356Z,69.10
2019-04-04T08:05:18.738Z,69.02
2019-04-04T08:07:46.035Z,69.27
2019-04-04T08:10:20.496Z,69.13
2019-04-04T08:12:42.969Z,69.13
2019-04-04T08:15:10.613Z,69.02
2019-04-04T08:17:37.851Z,69.10
2019-04-04T08:20:05.905Z,69.10
2019-04-04T08:22:33.174Z,69.03
2019-04-04T08:25:00.995Z,69.03
2019-04-04T08:27:28.396Z,68.90
2019-04-04T08:29:55.660Z,68.84
2019-04-04T08:32:22.957Z,68.79
2019-04-04T08:34:50.218Z,68.76
2019-04-04T08:37:17.496Z,68.69
2019-04-04T08:39:44.782Z,68.69
2019-04-04T08:42:12.044Z,68.74
2019-04-04T08:44:39.265Z,69.34
2019-04-04T08:47:06.508Z,68.91
2019-04-04T08:49:33.760Z,68.91
2019-04-04T08:52:01.071Z,68.96
2019-04-04T08:54:28.371Z,68.83
2019-04-04T08:56:55.681Z,68.65
2019-04-04T08:59:22.908Z,68.65
2019-04-04T09:01:50.153Z,68.74
2019-04-04T09:04:17.428Z,68.48
2019-04-04T09:06:44.694Z,68.48
2019-04-04T09:09:11.939Z,68.46
2019-04-04T09:11:39.231Z,68.29
2019-04-04T09:14:06.476Z,68.29
2019-04-04T09:16:33.719Z,68.42
2019-04-04T09:19:00.979Z,68.29
2019-04-04T09:21:28.223Z,68.29
2019-04-04T09:23:55.466Z,68.28
2019-04-04T09:26:22.694Z,68.22
2019-04-04T09:28:49.989Z,67.95
2019-04-04T09:31:17.298Z,67.95
2019-04-04T09:33:44.542Z,68.71
2019-04-04T09:36:11.849Z,68.47
2019-04-04T09:38:39.174Z,68.63
2019-04-04T09:41:06.515Z,68.53
2019-04-04T09:43:33.833Z,68.53
2019-04-04T09:46:01.131Z,68.58
2019-04-04T09:48:28.347Z,68.51
2019-04-04T09:50:55.660Z,68.55
2019-04-04T09:53:22.956Z,68.67
2019-04-04T09:55:50.202Z,68.68
2019-04-04T09:58:17.429Z,68.69
2019-04-04T10:00:45.968Z,68.97
2019-04-04T10:03:13.212Z,69.15
2019-04-04T10:05:40.509Z,69.23
2019-04-04T10:08:07.715Z,69.16
2019-04-04T10:10:34.968Z,69.18
2019-04-04T10:13:02.215Z,69.15
2019-04-04T10:15:29.465Z,69.55
2019-04-04T10:17:56.726Z,69.55
2019-04-04T10:20:24.116Z,69.20
2019-04-04T10:22:51.447Z,69.20
2019-04-04T10:25:18.702Z,69.11
2019-04-04T10:27:45.986Z,69.11
2019-04-04T10:30:13.609Z,68.48
2019-04-04T10:32:40.851Z,68.48
2019-04-04T10:35:08.323Z,68.73
2019-04-04T10:37:35.873Z,68.80
2019-04-04T10:40:04.258Z,69.03
2019-04-04T10:42:31.527Z,68.93
2019-04-04T10:44:58.819Z,68.46
2019-04-04T10:47:26.050Z,68.73
2019-04-04T10:49:53.320Z,68.71
2019-04-04T10:52:20.632Z,68.23
2019-04-04T10:54:47.898Z,68.09
2019-04-04T10:57:15.140Z,68.01
2019-04-04T10:59:42.506Z,67.54
2019-04-04T11:02:09.742Z,67.45
2019-04-04T11:04:37.108Z,67.02
2019-04-04T11:07:04.589Z,66.82
2019-04-04T11:09:41.303Z,66.57
2019-04-04T11:12:01.005Z,66.57
2019-04-04T11:14:28.302Z,66.78
2019-04-04T11:16:55.569Z,66.64
2019-04-04T11:19:31.077Z,66.54
2019-04-04T11:21:52.029Z,66.62
2019-04-04T11:24:19.388Z,66.72
2019-04-04T11:26:46.630Z,66.58
2019-04-04T11:29:13.843Z,66.42
2019-04-04T11:31:41.120Z,66.30
2019-04-04T11:34:08.483Z,66.12
2019-04-04T11:36:35.746Z,65.97
2019-04-04T11:39:05.531Z,66.09
2019-04-04T11:41:32.756Z,66.01
2019-04-04T11:44:00.050Z,65.95
2019-04-04T11:46:27.280Z,65.88
2019-04-04T11:48:54.523Z,65.55
2019-04-04T11:51:21.767Z,65.68
2019-04-04T11:53:49.020Z,65.60
2019-04-04T11:56:16.297Z,65.65
2019-04-04T11:58:43.636Z,64.62
2019-04-04T12:01:11.587Z,64.62
2019-04-04T12:03:38.883Z,64.73
2019-04-04T12:06:06.103Z,64.87
2019-04-04T12:08:33.352Z,65.32
2019-04-04T12:11:00.671Z,65.27
2019-04-04T12:16:13.270Z,64.26
2019-04-04T12:18:40.483Z,64.26
2019-04-04T12:21:07.698Z,64.40
2019-04-04T12:23:34.983Z,64.62
2019-04-04T12:26:02.234Z,64.44
2019-04-04T12:28:29.463Z,62.90
2019-04-04T12:30:56.755Z,62.90
2019-04-04T12:33:24.104Z,63.29
2019-04-04T12:35:52.596Z,63.50
2019-04-04T12:38:19.968Z,63.56
2019-04-04T12:40:47.212Z,63.70
2019-04-04T12:43:14.479Z,63.69
2019-04-04T12:45:41.753Z,63.28
2019-04-04T12:48:10.092Z,61.81
2019-04-04T12:50:37.423Z,61.81
2019-04-04T12:53:04.840Z,61.74
2019-04-04T12:55:32.297Z,61.57
2019-04-04T12:57:59.549Z,61.50
2019-04-04T13:00:26.822Z,61.61
2019-04-04T13:02:54.070Z,62.12
2019-04-04T13:05:21.385Z,62.01
2019-04-04T13:07:48.632Z,62.19
2019-04-04T13:10:16.256Z,62.28
2019-04-04T13:12:43.518Z,62.43
2019-04-04T13:15:11.396Z,62.36
2019-04-04T13:17:38.670Z,62.21
2019-04-04T13:20:06.941Z,62.10
2019-04-04T13:22:34.179Z,62.01
2019-04-04T13:25:01.451Z,62.20
2019-04-04T13:27:28.727Z,62.06
2019-04-04T13:29:55.998Z,62.37
2019-04-04T13:32:23.228Z,62.49
2019-04-04T13:34:59.119Z,62.27
2019-04-04T13:37:19.654Z,62.53
2019-04-04T13:39:46.896Z,62.53
2019-04-04T13:42:14.151Z,62.98
2019-04-04T13:44:41.464Z,62.98
2019-04-04T13:47:08.746Z,62.64
2019-04-04T13:49:35.963Z,62.64
2019-04-04T13:52:03.879Z,63.11
2019-04-04T13:54:31.155Z,62.99
2019-04-04T13:56:58.402Z,61.97
2019-04-04T13:59:25.708Z,62.13
2019-04-04T14:01:52.960Z,62.17
2019-04-04T14:04:20.611Z,62.27
2019-04-04T14:06:49.221Z,61.87
2019-04-04T14:09:16.452Z,62.03
2019-04-04T14:11:43.712Z,62.18
2019-04-04T14:14:11.067Z,62.21
2019-04-04T14:16:38.732Z,62.21
2019-04-04T14:19:05.949Z,62.26
2019-04-04T14:21:33.198Z,61.52
2019-04-04T14:24:12.400Z,62.00
2019-04-04T14:26:31.390Z,61.95
2019-04-04T14:28:58.787Z,62.09
2019-04-04T14:31:26.052Z,62.53
2019-04-04T14:33:53.291Z,62.21
2019-04-04T14:36:20.531Z,62.64
2019-04-04T14:38:47.808Z,63.05
2019-04-04T14:41:15.042Z,63.29
2019-04-04T14:43:42.319Z,63.38
2019-04-04T14:46:09.603Z,63.15
2019-04-04T14:48:36.855Z,63.60
2019-04-04T14:51:04.249Z,63.67
2019-04-04T14:53:31.498Z,63.84
2019-04-04T14:55:58.813Z,63.67
2019-04-04T14:58:26.035Z,63.67
2019-04-04T15:00:53.309Z,64.04
2019-04-04T15:03:20.562Z,63.93
2019-04-04T15:05:47.847Z,64.03
2019-04-04T15:08:15.105Z,64.37
2019-04-04T15:10:42.459Z,64.07
2019-04-04T15:13:09.788Z,63.94
2019-04-04T15:15:38.855Z,64.25
2019-04-04T15:18:06.111Z,64.24
2019-04-04T15:20:33.438Z,64.03
2019-04-04T15:23:00.713Z,64.03
2019-04-04T15:25:28.012Z,64.23
2019-04-04T15:27:55.291Z,64.29
2019-04-04T15:30:22.635Z,64.24
2019-04-04T15:32:50.015Z,63.85
2019-04-04T15:35:17.361Z,63.85
2019-04-04T15:37:44.586Z,63.95
2019-04-04T15:40:12.140Z,64.02
2019-04-04T15:42:39.399Z,63.80
2019-04-04T15:45:07.177Z,63.03
2019-04-04T15:47:34.419Z,63.20
2019-04-04T15:50:06.452Z,63.35
2019-04-04T15:52:33.754Z,63.35
2019-04-04T15:55:01.028Z,63.38
2019-04-04T15:57:28.309Z,63.45
2019-04-04T15:59:55.559Z,63.57
2019-04-04T16:02:22.790Z,63.66
2019-04-04T16:04:50.088Z,63.52
2019-04-04T16:07:17.417Z,63.55
2019-04-04T16:09:44.666Z,63.47
2019-04-04T16:12:11.925Z,63.45
2019-04-04T16:14:39.169Z,63.42
2019-04-04T16:17:06.426Z,63.52
2019-04-04T16:19:33.686Z,63.20
2019-04-04T16:22:00.981Z,63.51
2019-04-04T16:24:28.917Z,63.51
2019-04-04T16:26:56.401Z,63.89
2019-04-04T16:29:23.709Z,63.93
2019-04-04T16:31:51.077Z,63.77
2019-04-04T16:34:18.383Z,63.95
2019-04-04T16:36:45.726Z,64.24
2019-04-04T16:39:13.006Z,64.34
2019-04-04T16:41:40.245Z,64.34
2019-04-04T16:44:07.509Z,64.53
2019-04-04T16:46:34.769Z,64.78
2019-04-04T16:49:02.068Z,64.91
2019-04-04T16:51:29.381Z,65.12
2019-04-04T16:53:56.753Z,65.25
2019-04-04T16:56:24.226Z,65.41
2019-04-04T16:58:51.464Z,65.58
2019-04-04T17:01:18.736Z,65.61
2019-04-04T17:03:46.025Z,65.82
2019-04-04T17:06:13.259Z,65.82
2019-04-04T17:08:40.511Z,65.57
2019-04-04T17:11:07.765Z,65.62
2019-04-04T17:13:34.999Z,65.62
2019-04-04T17:16:02.254Z,65.47
2019-04-04T17:18:29.556Z,65.47
2019-04-04T17:20:56.776Z,65.66
2019-04-04T17:23:24.016Z,65.66
2019-04-04T17:25:51.267Z,65.74
2019-04-04T17:28:18.505Z,66.04
2019-04-04T17:30:46.144Z,66.23
2019-04-04T17:33:13.744Z,66.32
2019-04-04T17:35:41.048Z,66.24
2019-04-04T17:38:08.287Z,66.24
2019-04-04T17:40:35.599Z,66.43
2019-04-04T17:43:03.495Z,66.48
2019-04-04T17:45:31.200Z,66.48
2019-04-04T17:47:58.548Z,66.49
2019-04-04T17:50:26.784Z,66.54
2019-04-04T17:52:54.140Z,66.62
2019-04-04T17:55:21.803Z,66.66
2019-04-04T17:57:49.104Z,66.61
2019-04-04T18:00:18.848Z,66.61
2019-04-04T18:02:46.161Z,66.56
2019-04-04T18:05:13.711Z,66.56
2019-04-04T18:07:40.988Z,66.67
2019-04-04T18:10:08.571Z,66.78
2019-04-04T18:12:40.474Z,66.75
2019-04-04T18:15:05.215Z,66.80
2019-04-04T18:17:33.090Z,66.83
2019-04-04T18:20:00.374Z,66.77
2019-04-04T18:22:27.593Z,66.73
2019-04-04T18:24:54.849Z,66.58
2019-04-04T18:27:22.111Z,66.93
2019-04-04T18:29:49.329Z,66.93
2019-04-04T18:32:16.590Z,67.24
2019-04-04T18:34:44.027Z,67.35
2019-04-04T18:37:11.763Z,67.39
2019-04-04T18:39:39.149Z,67.41
2019-04-04T18:42:06.387Z,67.39
2019-04-04T18:44:33.960Z,67.34
2019-04-04T18:47:01.458Z,67.34
2019-04-04T18:49:28.707Z,67.31
2019-04-04T18:51:55.923Z,67.36
2019-04-04T18:54:23.235Z,67.54
2019-04-04T18:56:50.456Z,67.58
2019-04-04T18:59:17.669Z,67.61
2019-04-04T19:01:45.023Z,67.70
2019-04-04T19:04:12.286Z,67.66
2019-04-04T19:06:39.586Z,67.77
2019-04-04T19:09:15.213Z,67.85
2019-04-04T19:11:39.961Z,68.14
2019-04-04T19:14:07.227Z,68.12
2019-04-04T19:16:34.494Z,68.19
2019-04-04T19:19:01.744Z,68.19
2019-04-04T19:21:28.982Z,68.12
2019-04-04T19:23:56.228Z,68.08
2019-04-04T19:26:24.522Z,68.10
2019-04-04T19:28:51.767Z,68.17
2019-04-04T19:31:19.182Z,68.25
2019-04-04T19:33:46.581Z,68.31
2019-04-04T19:36:13.923Z,68.36
2019-04-04T19:38:41.158Z,68.42
2019-04-04T19:41:08.434Z,68.52
2019-04-04T19:43:35.693Z,68.60
2019-04-04T19:46:02.901Z,68.62
2019-04-04T19:48:34.192Z,68.73
2019-04-04T19:51:01.531Z,68.76
2019-04-04T19:53:28.808Z,68.79
2019-04-04T19:55:56.155Z,68.79
2019-04-04T19:58:23.379Z,68.77
2019-04-04T20:00:50.708Z,68.82
2019-04-04T20:03:17.936Z,68.82
2019-04-04T20:05:45.173Z,68.90
2019-04-04T20:08:12.438Z,68.92
2019-04-04T20:10:42.510Z,68.91
2019-04-04T20:13:09.737Z,68.94
2019-04-04T20:15:37.026Z,68.94
2019-04-04T20:18:04.359Z,69.02
2019-04-04T20:20:31.651Z,69.07
2019-04-04T20:22:59.142Z,69.07
2019-04-04T20:25:26.368Z,69.04
2019-04-04T20:27:55.094Z,68.92
2019-04-04T20:30:35.931Z,68.99
2019-04-04T20:33:03.267Z,68.99
2019-04-04T20:35:30.849Z,68.92
2019-04-04T20:37:58.131Z,69.11
2019-04-04T20:40:25.372Z,69.11
2019-04-04T20:42:52.613Z,69.29
2019-04-04T20:45:19.909Z,69.49
2019-04-04T20:47:47.128Z,69.42
2019-04-04T20:50:14.456Z,69.34
2019-04-04T20:52:41.704Z,69.29
2019-04-04T20:55:08.930Z,68.83
2019-04-04T20:57:36.151Z,69.02
2019-04-04T21:00:04.237Z,69.02
2019-04-04T21:02:31.443Z,69.07
2019-04-04T21:04:58.643Z,69.14
2019-04-04T21:07:25.922Z,69.03
2019-04-04T21:09:53.163Z,68.96
2019-04-04T21:12:20.413Z,68.96
2019-04-04T21:14:47.720Z,69.00
2019-04-04T21:17:14.914Z,69.02
2019-04-04T21:19:42.160Z,69.02
2019-04-04T21:22:09.448Z,69.04
2019-04-04T21:24:36.733Z,69.03
2019-04-04T21:27:03.979Z,69.03
2019-04-04T21:29:31.219Z,68.97
2019-04-04T21:31:58.444Z,68.97
2019-04-04T21:34:25.678Z,68.78
2019-04-04T21:36:52.920Z,68.78
2019-04-04T21:39:20.200Z,68.90
2019-04-04T21:41:47.458Z,68.93
2019-04-04T21:44:14.747Z,68.96
2019-04-04T21:46:42.002Z,68.87
2019-04-04T21:49:09.214Z,68.87
2019-04-04T21:51:36.456Z,68.98
2019-04-04T21:54:03.866Z,69.06
2019-04-04T21:56:31.156Z,68.98
2019-04-04T21:58:58.383Z,69.03
2019-04-04T22:01:26.041Z,69.03
2019-04-04T22:03:53.292Z,69.00
2019-04-04T22:06:20.544Z,68.99
2019-04-04T22:08:47.777Z,68.97
2019-04-04T22:11:15.069Z,69.04
2019-04-04T22:13:42.321Z,69.04
2019-04-04T22:16:09.565Z,69.35
2019-04-04T22:18:36.859Z,69.12
2019-04-04T22:21:04.137Z,69.12
2019-04-04T22:23:31.396Z,69.28
2019-04-04T22:25:58.688Z,69.30
2019-04-04T22:28:25.935Z,69.42
2019-04-04T22:30:53.194Z,69.40
2019-04-04T22:33:20.473Z,69.34
2019-04-04T22:35:47.760Z,69.08
2019-04-04T22:38:15.004Z,69.91
2019-04-04T22:40:42.322Z,69.83
2019-04-04T22:43:09.562Z,69.80
2019-04-04T22:45:36.802Z,69.82
2019-04-04T22:48:04.372Z,69.75
2019-04-04T22:50:31.631Z,69.75
2019-04-04T22:52:58.908Z,69.77
2019-04-04T22:55:26.692Z,69.79
2019-04-04T22:57:54.099Z,69.86
2019-04-04T23:00:21.455Z,69.86
2019-04-04T23:02:48.855Z,69.78
2019-04-04T23:05:16.153Z,69.63
2019-04-04T23:07:43.444Z,69.63
2019-04-04T23:10:10.701Z,69.62
2019-04-04T23:12:38.002Z,69.60
2019-04-04T23:15:06.611Z,69.64
2019-04-04T23:17:33.879Z,69.63
2019-04-04T23:20:01.189Z,69.63
2019-04-04T23:22:28.460Z,69.58
2019-04-04T23:24:55.712Z,69.54
2019-04-04T23:27:23.033Z,69.53
2019-04-04T23:29:50.288Z,69.52
2019-04-04T23:32:17.558Z,69.63
2019-04-04T23:34:44.892Z,69.63
2019-04-04T23:37:12.156Z,69.50
2019-04-04T23:39:39.401Z,69.50
2019-04-04T23:42:06.682Z,69.53
2019-04-04T23:44:33.918Z,69.52
2019-04-04T23:47:01.165Z,69.54
2019-04-04T23:49:28.459Z,69.44
2019-04-04T23:51:55.734Z,69.47
2019-04-04T23:54:23.031Z,69.49
2019-04-04T23:56:50.344Z,69.69
2019-04-04T23:59:17.588Z,69.91
